Accueil
METAR-TAF:

METAR-TAF

Aéroports :

Aéroport de Bristol

Bristol, Angleterre

latitude: 51-23N, longitude: 002-43W, altitude: 189 m

Observation

Le bulletin a été fait il y a 10 minutes, à 16:50 UTC
Vent 5 kt de est/nord-est
Température 3°C
Humidité 100%
Pression 1028 hPa
Visibilité: 0100 m
brouillard

METAR: EGGD 011650Z AUTO 07005KT 0100 R27/0350N FG VV/// 03/03 Q1028

Heure: 17:00 (17:00 UTC)

Prévision

Le bulletin a été fait il y a 5 heures et 56 minutes, à 11:04 UTC
Prévision valable du 01 à 12 UTC au 02 à 12 UTC
Vent 4 kt de est
Visibilité: 0100 m
Nuages fragmentés à une hauteur de 100 ft
brouillard
Probabilité 30% :
Temporairement
du 01 à 12 UTC au 02 à 12 UTC
Visibilité: 1500 m
Nuages fragmentés à une hauteur de 200 ft
brume

TAF: EGGD 011104Z 0112/0212 08004KT 0100 FG BKN001 PROB30 TEMPO 0112/0212 1500 BR BKN002

Observations et prévisions météorologiques de plus de 4000 aéroports (messages METAR et TAF).

Les stations disponibles sont représentées par des disques jaunes et rouges sur la carte.

Passer la souris dessus pour voir le nom de la station.

Cliquer dessus pour voir les observations et prévisions météorologiques.

Pour changer de carte: cliquez sur les boutons verts avec une croix noire pour zoomer, sur le bouton vert avec un tiret pour effectuer un zoom arrière, ou sur les flèches vertes pour les cartes adjacentes.


METAR-TAF: